createdAt,value
2019-05-07T00:01:17.896Z,4.30
2019-05-07T00:03:48.283Z,4.30
2019-05-07T00:06:18.751Z,4.20
2019-05-07T00:08:49.347Z,4.20
2019-05-07T00:11:22.102Z,4.10
2019-05-07T00:13:52.244Z,4.00
2019-05-07T00:16:22.452Z,4.00
2019-05-07T00:18:52.527Z,4.00
2019-05-07T00:21:23.293Z,4.00
2019-05-07T00:23:53.007Z,4.00
2019-05-07T00:26:23.383Z,4.00
2019-05-07T00:28:53.890Z,3.90
2019-05-07T00:31:24.340Z,3.90
2019-05-07T00:33:54.778Z,3.80
2019-05-07T00:36:35.329Z,3.80
2019-05-07T00:39:15.281Z,3.70
2019-05-07T00:41:52.172Z,3.60
2019-05-07T00:44:22.079Z,3.60
2019-05-07T00:46:52.510Z,3.50
2019-05-07T00:51:52.203Z,3.50
2019-05-07T00:56:52.360Z,3.60
2019-05-07T00:59:22.713Z,3.60
2019-05-07T01:01:53.252Z,3.50
2019-05-07T01:04:23.631Z,3.50
2019-05-07T01:06:54.072Z,3.40
2019-05-07T01:09:24.572Z,3.30
2019-05-07T01:11:55.180Z,3.20
2019-05-07T01:14:25.632Z,3.10
2019-05-07T01:16:55.964Z,3.10
2019-05-07T01:19:26.377Z,3.10
2019-05-07T01:21:56.825Z,3.10
2019-05-07T01:24:27.264Z,3.00
2019-05-07T01:26:57.564Z,3.00
2019-05-07T01:32:03.554Z,3.00
2019-05-07T01:34:42.973Z,3.00
2019-05-07T01:39:42.180Z,3.00
2019-05-07T01:42:12.790Z,3.00
2019-05-07T01:44:42.415Z,3.00
2019-05-07T01:47:13.164Z,2.90
2019-05-07T01:49:43.715Z,2.90
2019-05-07T01:52:14.182Z,2.90
2019-05-07T01:54:47.182Z,2.90
2019-05-07T01:57:15.358Z,2.90
2019-05-07T01:59:45.695Z,2.90
2019-05-07T02:02:22.945Z,2.80
2019-05-07T02:04:57.737Z,2.80
2019-05-07T02:07:34.306Z,2.90
2019-05-07T02:10:24.295Z,3.00
2019-05-07T02:12:54.864Z,3.10
2019-05-07T02:15:25.280Z,3.10
2019-05-07T02:17:55.774Z,3.20
2019-05-07T02:20:26.175Z,3.30
2019-05-07T02:22:56.532Z,3.40
2019-05-07T02:25:27.235Z,3.50
2019-05-07T02:27:57.716Z,3.60
2019-05-07T02:30:28.193Z,3.60
2019-05-07T02:38:03.144Z,3.80
2019-05-07T02:40:37.908Z,3.90
2019-05-07T02:43:08.514Z,3.80
2019-05-07T02:45:44.003Z,3.80
2019-05-07T02:48:13.635Z,3.90
2019-05-07T02:50:53.841Z,3.80
2019-05-07T02:53:28.516Z,3.80
2019-05-07T02:55:58.977Z,3.80
2019-05-07T02:58:32.856Z,3.80
2019-05-07T03:01:00.161Z,3.80
2019-05-07T03:03:33.235Z,3.80
2019-05-07T03:06:02.941Z,3.80
2019-05-07T03:08:33.026Z,3.80
2019-05-07T03:11:03.374Z,3.80
2019-05-07T03:13:33.862Z,3.70
2019-05-07T03:16:03.921Z,3.70
2019-05-07T03:18:34.316Z,3.70
2019-05-07T03:21:12.563Z,3.80
2019-05-07T03:24:16.086Z,3.70
2019-05-07T03:26:47.181Z,3.80
2019-05-07T03:29:23.627Z,3.70
2019-05-07T03:31:56.541Z,3.70
2019-05-07T03:35:06.834Z,3.70
2019-05-07T03:40:03.772Z,3.70
2019-05-07T03:42:33.590Z,3.60
2019-05-07T03:45:17.020Z,3.60
2019-05-07T03:47:49.996Z,3.60
2019-05-07T03:50:23.094Z,3.60
2019-05-07T03:52:50.979Z,3.60
2019-05-07T03:55:23.399Z,3.60
2019-05-07T03:57:52.735Z,3.60
2019-05-07T04:00:23.919Z,3.60
2019-05-07T04:02:52.981Z,3.70
2019-05-07T04:07:54.022Z,3.90
2019-05-07T04:10:23.609Z,4.00
2019-05-07T04:12:54.103Z,4.10
2019-05-07T04:15:24.480Z,4.30
2019-05-07T04:17:54.912Z,4.40
2019-05-07T04:20:25.367Z,4.50
2019-05-07T04:22:55.878Z,4.60
2019-05-07T04:25:34.311Z,4.70
2019-05-07T04:28:13.908Z,4.90
2019-05-07T04:30:43.871Z,5.10
2019-05-07T04:33:13.108Z,5.20
2019-05-07T04:35:47.591Z,5.30
2019-05-07T04:38:18.080Z,5.50
2019-05-07T04:40:48.341Z,5.60
2019-05-07T04:43:18.863Z,5.70
2019-05-07T04:45:49.500Z,5.80
2019-05-07T04:48:23.034Z,5.90
2019-05-07T04:50:53.916Z,5.90
2019-05-07T04:53:23.658Z,5.90
2019-05-07T04:58:23.597Z,6.00
2019-05-07T05:00:53.797Z,6.00
2019-05-07T05:03:24.739Z,6.10
2019-05-07T05:05:55.423Z,6.20
2019-05-07T05:08:25.912Z,6.20
2019-05-07T05:10:56.357Z,6.10
2019-05-07T05:13:26.716Z,6.10
2019-05-07T05:15:57.280Z,6.10
2019-05-07T05:18:27.552Z,6.00
2019-05-07T05:21:02.900Z,6.00
2019-05-07T05:23:41.927Z,5.90
2019-05-07T05:26:12.511Z,5.80
2019-05-07T05:28:42.099Z,5.70
2019-05-07T05:31:12.750Z,5.70
2019-05-07T05:33:42.832Z,5.80
2019-05-07T05:38:43.083Z,6.00
2019-05-07T05:41:13.676Z,6.00
2019-05-07T05:43:48.844Z,6.20
2019-05-07T05:46:19.538Z,6.30
2019-05-07T05:48:51.875Z,6.40
2019-05-07T05:51:26.139Z,6.50
2019-05-07T05:54:08.186Z,6.60
2019-05-07T05:56:44.867Z,6.70
2019-05-07T06:01:23.906Z,6.90
2019-05-07T06:04:17.368Z,7.00
2019-05-07T06:07:10.645Z,7.10
2019-05-07T06:09:37.688Z,7.20
2019-05-07T06:12:14.043Z,7.30
2019-05-07T06:14:53.927Z,7.40
2019-05-07T06:17:37.838Z,7.50
2019-05-07T06:20:13.776Z,7.50
2019-05-07T06:22:48.211Z,7.70
2019-05-07T06:25:24.751Z,7.70
2019-05-07T06:30:22.832Z,7.80
2019-05-07T06:32:52.688Z,7.80
2019-05-07T06:35:23.143Z,7.90
2019-05-07T06:37:53.620Z,8.00
2019-05-07T06:40:29.560Z,8.10
2019-05-07T06:43:04.668Z,8.00
2019-05-07T06:45:39.359Z,8.10
2019-05-07T06:48:09.781Z,8.10
2019-05-07T06:50:40.344Z,8.20
2019-05-07T06:53:12.048Z,8.20
2019-05-07T06:55:42.771Z,8.20
2019-05-07T06:58:12.342Z,8.40
2019-05-07T07:00:47.955Z,8.50
2019-05-07T07:03:27.393Z,8.60
2019-05-07T07:06:03.043Z,8.60
2019-05-07T07:08:37.775Z,8.50
2019-05-07T07:11:18.230Z,8.50
2019-05-07T07:13:48.525Z,8.50
2019-05-07T07:16:18.886Z,8.60
2019-05-07T07:18:52.391Z,8.60
2019-05-07T07:21:21.843Z,8.70
2019-05-07T07:23:52.344Z,8.70
2019-05-07T07:26:22.043Z,8.60
2019-05-07T07:28:52.535Z,8.70
2019-05-07T07:31:28.445Z,8.80
2019-05-07T07:36:31.902Z,8.90
2019-05-07T07:39:02.055Z,9.00
2019-05-07T07:41:36.023Z,9.30
2019-05-07T07:44:06.656Z,9.50
2019-05-07T07:49:11.285Z,9.80
2019-05-07T07:51:41.749Z,9.90
2019-05-07T07:54:07.966Z,10.00
2019-05-07T07:56:52.378Z,9.90
2019-05-07T08:00:23.394Z,10.00
2019-05-07T08:02:57.432Z,10.00
2019-05-07T08:05:27.864Z,10.10
2019-05-07T08:07:58.385Z,10.10
2019-05-07T08:10:28.804Z,10.00
2019-05-07T08:12:59.299Z,9.90
2019-05-07T08:15:29.567Z,10.00
2019-05-07T08:18:00.082Z,10.50
2019-05-07T08:20:32.598Z,10.70
2019-05-07T08:25:36.671Z,10.40
2019-05-07T08:28:07.176Z,10.90
2019-05-07T08:30:37.364Z,11.30
2019-05-07T08:33:14.648Z,11.60
2019-05-07T08:35:48.688Z,11.20
2019-05-07T08:38:19.105Z,11.20
2019-05-07T08:40:49.436Z,10.90
2019-05-07T08:43:21.719Z,10.70
2019-05-07T08:45:54.999Z,10.60
2019-05-07T08:48:32.073Z,10.60
2019-05-07T08:56:03.301Z,10.90
2019-05-07T08:58:32.169Z,10.70
2019-05-07T09:01:03.064Z,10.90
2019-05-07T09:03:38.084Z,11.30
2019-05-07T09:06:08.576Z,11.30
2019-05-07T09:08:38.967Z,11.10
2019-05-07T09:11:09.464Z,10.90
2019-05-07T09:13:42.019Z,10.90
2019-05-07T09:16:12.715Z,11.20
2019-05-07T09:18:42.207Z,11.50
2019-05-07T09:21:12.529Z,12.00
2019-05-07T09:23:42.362Z,12.20
2019-05-07T09:26:13.859Z,12.50
2019-05-07T09:28:55.606Z,13.00
2019-05-07T09:31:32.092Z,12.60
2019-05-07T09:34:02.523Z,12.00
2019-05-07T09:36:34.936Z,11.80
2019-05-07T09:39:06.375Z,11.60
2019-05-07T09:41:36.835Z,11.70
2019-05-07T09:44:07.259Z,11.50
2019-05-07T09:46:37.661Z,11.70
2019-05-07T09:49:08.139Z,11.40
2019-05-07T09:51:38.544Z,11.80
2019-05-07T09:54:08.965Z,12.30
2019-05-07T09:56:39.634Z,12.40
2019-05-07T09:59:12.560Z,12.40
2019-05-07T10:01:41.801Z,12.30
2019-05-07T10:04:12.679Z,12.10
2019-05-07T10:06:43.173Z,12.20
2019-05-07T10:09:13.616Z,12.10
2019-05-07T10:11:48.160Z,11.90
2019-05-07T10:14:18.643Z,11.70
2019-05-07T10:16:56.034Z,11.60
2019-05-07T10:19:26.458Z,11.50
2019-05-07T10:21:56.893Z,11.40
2019-05-07T10:24:27.460Z,11.40
2019-05-07T10:26:57.960Z,11.70
2019-05-07T10:29:28.471Z,11.90
2019-05-07T10:31:58.944Z,11.80
2019-05-07T10:34:29.567Z,11.70
2019-05-07T10:37:00.023Z,11.80
2019-05-07T10:39:32.420Z,11.80
2019-05-07T10:42:01.840Z,11.40
2019-05-07T10:44:35.683Z,11.40
2019-05-07T10:47:12.106Z,11.50
2019-05-07T10:49:48.474Z,11.30
2019-05-07T10:52:18.889Z,11.00
2019-05-07T10:54:57.549Z,10.80
2019-05-07T10:57:19.704Z,10.70
2019-05-07T10:59:52.244Z,10.80
2019-05-07T11:02:23.831Z,11.10
2019-05-07T11:07:23.968Z,12.00
2019-05-07T11:09:54.491Z,12.20
2019-05-07T11:12:24.904Z,12.50
2019-05-07T11:14:55.371Z,12.80
2019-05-07T11:18:28.598Z,12.30
2019-05-07T11:20:59.119Z,13.10
2019-05-07T11:23:29.371Z,12.80
2019-05-07T11:25:59.886Z,12.80
2019-05-07T11:28:32.278Z,12.90
2019-05-07T11:31:02.067Z,13.20
2019-05-07T11:33:32.533Z,13.30
2019-05-07T11:36:02.294Z,12.90
2019-05-07T11:38:33.437Z,12.70
2019-05-07T11:41:02.952Z,12.40
2019-05-07T11:44:08.498Z,12.20
2019-05-07T11:47:43.846Z,11.80
2019-05-07T11:50:33.148Z,11.80
2019-05-07T11:53:06.471Z,12.10
2019-05-07T11:58:06.508Z,13.20
2019-05-07T12:03:25.009Z,14.00
2019-05-07T12:05:55.368Z,14.50
2019-05-07T12:08:37.444Z,14.70
2019-05-07T12:10:56.582Z,14.60
2019-05-07T12:13:27.355Z,14.20
2019-05-07T12:15:57.848Z,12.80
2019-05-07T12:18:28.469Z,11.50
2019-05-07T12:20:58.865Z,11.00
2019-05-07T12:23:29.328Z,10.80
2019-05-07T12:25:59.655Z,10.90
2019-05-07T12:28:29.967Z,11.70
2019-05-07T12:31:07.258Z,12.90
2019-05-07T12:33:57.673Z,13.60
2019-05-07T12:36:28.189Z,14.10
2019-05-07T12:38:58.537Z,14.60
2019-05-07T12:41:33.178Z,14.90
2019-05-07T12:44:02.628Z,15.60
2019-05-07T12:46:33.343Z,15.90
2019-05-07T12:49:03.443Z,15.00
2019-05-07T12:51:38.097Z,13.50
2019-05-07T12:54:25.353Z,12.50
2019-05-07T12:56:55.739Z,11.70
2019-05-07T12:59:26.159Z,11.50
2019-05-07T13:02:01.650Z,11.30
2019-05-07T13:04:32.578Z,11.00
2019-05-07T13:07:06.809Z,11.10
2019-05-07T13:09:37.359Z,11.00
2019-05-07T13:12:07.843Z,11.30
2019-05-07T13:14:38.272Z,12.30
2019-05-07T13:17:08.673Z,13.00
2019-05-07T13:22:08.780Z,12.40
2019-05-07T13:24:39.243Z,12.50
2019-05-07T13:27:09.488Z,13.20
2019-05-07T13:29:42.501Z,13.40
2019-05-07T13:32:12.191Z,13.80
2019-05-07T13:34:42.826Z,13.60
2019-05-07T13:37:17.042Z,13.90
2019-05-07T13:39:52.695Z,13.50
2019-05-07T13:42:28.080Z,13.40
2019-05-07T13:45:02.890Z,14.60
2019-05-07T13:47:35.760Z,14.70
2019-05-07T13:50:07.162Z,14.00
2019-05-07T13:52:37.776Z,13.70
2019-05-07T13:55:08.812Z,14.30
2019-05-07T13:57:39.281Z,13.90
2019-05-07T14:00:12.897Z,13.20
2019-05-07T14:02:42.166Z,12.90
2019-05-07T14:05:14.240Z,13.30
2019-05-07T14:07:42.927Z,13.20
2019-05-07T14:10:13.784Z,12.60
2019-05-07T14:12:44.299Z,12.60
2019-05-07T14:15:14.988Z,13.30
2019-05-07T14:17:45.415Z,13.60
2019-05-07T14:20:16.109Z,14.60
2019-05-07T14:22:46.379Z,14.80
2019-05-07T14:25:16.949Z,15.10
2019-05-07T14:27:47.163Z,14.30
2019-05-07T14:30:18.042Z,13.50
2019-05-07T14:32:52.646Z,13.30
2019-05-07T14:35:27.876Z,12.90
2019-05-07T14:38:01.991Z,12.50
2019-05-07T14:40:32.476Z,12.20
2019-05-07T14:45:42.241Z,11.80
2019-05-07T14:48:12.707Z,11.60
2019-05-07T14:50:44.909Z,11.60
2019-05-07T14:53:13.652Z,11.50
2019-05-07T14:55:44.125Z,11.40
2019-05-07T14:58:14.596Z,10.90
2019-05-07T15:03:14.887Z,8.70
2019-05-07T15:05:45.368Z,8.10
2019-05-07T15:08:15.863Z,7.70
2019-05-07T15:10:46.348Z,7.60
2019-05-07T15:13:16.751Z,7.50
2019-05-07T15:15:47.193Z,7.60
2019-05-07T15:18:23.256Z,7.70
2019-05-07T15:20:53.837Z,7.70
2019-05-07T15:23:29.710Z,7.80
2019-05-07T15:26:02.673Z,8.00
2019-05-07T15:31:12.092Z,8.80
2019-05-07T15:33:41.829Z,9.20
2019-05-07T15:36:11.968Z,9.70
2019-05-07T15:38:42.917Z,10.40
2019-05-07T15:41:12.040Z,11.00
2019-05-07T15:43:45.858Z,11.20
2019-05-07T15:46:13.111Z,11.20
2019-05-07T15:48:43.738Z,11.20
2019-05-07T15:51:16.533Z,11.40
2019-05-07T15:53:48.951Z,11.80
2019-05-07T15:58:49.072Z,14.10
2019-05-07T16:01:22.013Z,14.80
2019-05-07T16:03:54.379Z,15.60
2019-05-07T16:06:22.022Z,15.90
2019-05-07T16:08:53.285Z,16.00
2019-05-07T16:11:23.697Z,16.40
2019-05-07T16:13:59.019Z,16.30
2019-05-07T16:16:29.597Z,15.70
2019-05-07T16:19:05.645Z,14.60
2019-05-07T16:21:36.031Z,14.50
2019-05-07T16:24:06.553Z,14.00
2019-05-07T16:26:37.053Z,13.60
2019-05-07T16:29:07.435Z,13.50
2019-05-07T16:31:39.307Z,13.70
2019-05-07T16:34:09.684Z,12.90
2019-05-07T16:36:41.916Z,12.70
2019-05-07T16:39:12.040Z,13.00
2019-05-07T16:41:42.231Z,13.80
2019-05-07T16:44:12.194Z,14.00
2019-05-07T16:46:42.416Z,13.90
2019-05-07T16:49:12.687Z,13.90
2019-05-07T16:51:44.798Z,13.50
2019-05-07T16:54:13.562Z,13.20
2019-05-07T16:56:49.064Z,13.20
2019-05-07T16:59:19.375Z,13.00
2019-05-07T17:01:52.034Z,12.60
2019-05-07T17:04:20.168Z,11.70
2019-05-07T17:06:52.159Z,11.20
2019-05-07T17:09:22.315Z,10.60
2019-05-07T17:11:52.710Z,10.40
2019-05-07T17:14:21.939Z,10.10
2019-05-07T17:16:52.347Z,10.00
2019-05-07T17:19:22.737Z,9.90
2019-05-07T17:21:53.346Z,9.80
2019-05-07T17:24:23.648Z,9.80
2019-05-07T17:26:54.132Z,9.80
2019-05-07T17:29:24.656Z,9.60
2019-05-07T17:31:55.157Z,9.60
2019-05-07T17:34:25.751Z,9.60
2019-05-07T17:36:56.336Z,9.40
2019-05-07T17:39:26.619Z,9.40
2019-05-07T17:41:57.028Z,9.40
2019-05-07T17:44:27.332Z,9.40
2019-05-07T17:46:57.771Z,9.50
2019-05-07T17:49:28.280Z,9.40
2019-05-07T17:51:58.736Z,9.30
2019-05-07T17:54:29.040Z,9.20
2019-05-07T17:56:59.376Z,9.20
2019-05-07T17:59:31.693Z,9.10
2019-05-07T18:02:05.452Z,9.10
2019-05-07T18:04:50.541Z,9.00
2019-05-07T18:07:07.297Z,9.00
2019-05-07T18:09:37.717Z,8.90
2019-05-07T18:12:07.933Z,8.90
2019-05-07T18:14:38.093Z,8.90
2019-05-07T18:17:16.321Z,8.90
2019-05-07T18:19:48.677Z,8.90
2019-05-07T18:22:19.156Z,8.80
2019-05-07T18:24:49.514Z,8.70
2019-05-07T18:27:24.128Z,8.60
2019-05-07T18:29:54.424Z,8.60
2019-05-07T18:32:28.742Z,8.40
2019-05-07T18:34:59.417Z,8.40
2019-05-07T18:37:29.656Z,8.20
2019-05-07T18:40:02.362Z,8.00
2019-05-07T18:42:32.576Z,7.80
2019-05-07T18:45:02.123Z,7.70
2019-05-07T18:47:33.130Z,7.60
2019-05-07T18:50:02.861Z,7.60
2019-05-07T18:55:08.334Z,7.50
2019-05-07T18:57:56.201Z,7.50
2019-05-07T19:00:31.770Z,7.40
2019-05-07T19:03:03.131Z,7.20
2019-05-07T19:05:31.731Z,7.20
2019-05-07T19:08:07.697Z,7.20
2019-05-07T19:10:33.022Z,7.20
2019-05-07T19:13:03.704Z,7.20
2019-05-07T19:15:34.215Z,7.10
2019-05-07T19:18:05.026Z,7.00
2019-05-07T19:20:36.199Z,7.00
2019-05-07T19:23:06.922Z,6.90
2019-05-07T19:25:49.340Z,6.70
2019-05-07T19:28:22.218Z,6.70
2019-05-07T19:30:52.734Z,6.60
2019-05-07T19:33:26.468Z,6.50
2019-05-07T19:35:52.755Z,6.40
2019-05-07T19:38:22.513Z,6.30
2019-05-07T19:40:53.200Z,6.20
2019-05-07T19:43:23.731Z,6.10
2019-05-07T19:45:54.176Z,5.90
2019-05-07T19:48:24.710Z,5.90
2019-05-07T19:50:56.168Z,5.80
2019-05-07T19:53:26.750Z,5.70
2019-05-07T19:58:32.787Z,5.60
2019-05-07T20:01:03.156Z,5.50
2019-05-07T20:03:33.723Z,5.50
2019-05-07T20:06:04.197Z,5.50
2019-05-07T20:08:34.912Z,5.60
2019-05-07T20:11:11.930Z,5.70
2019-05-07T20:13:41.666Z,5.70
2019-05-07T20:16:13.954Z,5.70
2019-05-07T20:18:44.293Z,5.60
2019-05-07T20:21:14.772Z,5.60
2019-05-07T20:23:45.724Z,5.60
2019-05-07T20:26:16.112Z,5.60
2019-05-07T20:28:47.067Z,5.50
2019-05-07T20:33:47.285Z,5.30
2019-05-07T20:36:17.960Z,5.30
2019-05-07T20:38:51.896Z,5.30
2019-05-07T20:41:20.029Z,5.30
2019-05-07T20:43:52.325Z,5.50
2019-05-07T20:46:21.045Z,5.50
2019-05-07T20:48:52.604Z,5.40
2019-05-07T20:51:23.155Z,5.20
2019-05-07T20:54:12.833Z,4.90
2019-05-07T20:56:46.702Z,4.70
2019-05-07T20:59:16.187Z,4.50
2019-05-07T21:01:46.860Z,4.30
2019-05-07T21:04:17.490Z,4.20
2019-05-07T21:06:48.063Z,4.10
2019-05-07T21:09:18.515Z,4.10
2019-05-07T21:11:49.127Z,4.10
2019-05-07T21:14:19.831Z,4.20
2019-05-07T21:16:51.856Z,4.20
2019-05-07T21:19:22.306Z,4.20
2019-05-07T21:21:51.680Z,4.20
2019-05-07T21:24:22.663Z,4.30
2019-05-07T21:26:53.182Z,4.30
2019-05-07T21:29:23.507Z,4.30
2019-05-07T21:31:54.155Z,4.40
2019-05-07T21:34:24.624Z,4.50
2019-05-07T21:36:54.985Z,4.50
2019-05-07T21:41:55.488Z,4.30
2019-05-07T21:44:26.148Z,4.20
2019-05-07T21:46:56.699Z,4.10
2019-05-07T21:49:27.292Z,4.00
2019-05-07T21:51:57.685Z,3.80
2019-05-07T21:54:34.256Z,3.60
2019-05-07T21:58:12.676Z,3.50
2019-05-07T22:00:48.252Z,3.50
2019-05-07T22:03:18.957Z,3.50
2019-05-07T22:05:51.642Z,3.40
2019-05-07T22:08:21.908Z,3.30
2019-05-07T22:10:50.837Z,3.30
2019-05-07T22:13:22.041Z,3.20
2019-05-07T22:15:52.217Z,3.10
2019-05-07T22:18:22.646Z,3.00
2019-05-07T22:23:24.767Z,2.80
2019-05-07T22:25:53.180Z,2.80
2019-05-07T22:28:23.608Z,2.70
2019-05-07T22:30:59.076Z,2.70
2019-05-07T22:33:34.219Z,2.70
2019-05-07T22:36:04.842Z,2.70
2019-05-07T22:38:35.393Z,2.70
2019-05-07T22:41:05.912Z,2.60
2019-05-07T22:43:36.429Z,2.40
2019-05-07T22:46:06.855Z,2.40
2019-05-07T22:48:37.447Z,2.40
2019-05-07T22:51:07.923Z,2.40
2019-05-07T22:53:38.320Z,2.40
2019-05-07T22:56:08.767Z,2.40
2019-05-07T22:58:43.700Z,2.40
2019-05-07T23:01:14.291Z,2.30
2019-05-07T23:03:44.663Z,2.20
2019-05-07T23:06:15.287Z,2.20
2019-05-07T23:08:45.796Z,2.10
2019-05-07T23:11:16.252Z,2.00
2019-05-07T23:13:46.851Z,2.00
2019-05-07T23:16:17.232Z,1.90
2019-05-07T23:18:47.597Z,1.90
2019-05-07T23:21:17.956Z,2.00
2019-05-07T23:23:48.451Z,2.00
2019-05-07T23:26:18.912Z,2.00
2019-05-07T23:28:51.330Z,2.10
2019-05-07T23:31:19.739Z,2.00
2019-05-07T23:33:52.167Z,2.00
2019-05-07T23:36:22.538Z,2.00
2019-05-07T23:38:52.085Z,2.10
2019-05-07T23:41:26.731Z,2.10
2019-05-07T23:44:02.730Z,2.10
2019-05-07T23:46:32.664Z,2.00
2019-05-07T23:49:02.967Z,2.10
2019-05-07T23:51:33.417Z,2.10
2019-05-07T23:54:03.963Z,2.10
2019-05-07T23:56:34.472Z,2.00
2019-05-07T23:59:04.939Z,2.00
